Time;durP1;ratioP1;P1;durP2;ratioP2;P2;SDS_P1;SDS_P2;PMS_P1;PMS_P2;Temp;Humidity;BMP_temperature;BMP_pressure;BME280_temperature;BME280_humidity;BME280_pressure;Samples;Min_cycle;Max_cycle;Signal;HPM_P1;HPM_P2
2021/05/29 00:01:09;;;;;;;12.18;10.03;;;;;;;12.08;71.30;100799.80;128539;1095;24202;-75
2021/05/29 00:03:38;;;;;;;15.00;11.20;;;;;;;11.99;71.32;100786.55;128576;1098;22348;-74
2021/05/29 00:06:09;;;;;;;11.15;10.03;;;;;;;11.94;71.48;100790.70;128557;1095;22341;-74
2021/05/29 00:08:39;;;;;;;20.10;10.83;;;;;;;11.89;71.45;100790.36;128565;1098;22330;-74
2021/05/29 00:11:10;;;;;;;17.03;10.93;;;;;;;11.86;71.86;100798.63;128534;1098;22413;-75
2021/05/29 00:13:40;;;;;;;12.90;10.83;;;;;;;11.80;71.51;100800.10;128553;1095;22348;-74
2021/05/29 00:16:10;;;;;;;12.98;11.65;;;;;;;11.73;71.67;100805.23;128221;1094;22328;-74
2021/05/29 00:18:40;;;;;;;14.03;11.78;;;;;;;11.70;71.62;100813.49;128545;1095;25044;-74
2021/05/29 00:21:10;;;;;;;12.53;11.20;;;;;;;11.64;71.73;100808.84;128529;1098;22436;-74
2021/05/29 00:23:40;;;;;;;12.38;10.43;;;;;;;11.60;71.73;100807.52;128530;1098;22352;-74
2021/05/29 00:26:10;;;;;;;12.53;10.10;;;;;;;11.54;72.03;100814.29;128503;1098;22614;-74
2021/05/29 00:28:40;;;;;;;11.60;9.90;;;;;;;11.50;72.16;100815.61;128535;1098;22702;-74
2021/05/29 00:31:10;;;;;;;11.53;9.78;;;;;;;11.47;72.14;100823.05;128256;1095;22455;-74
2021/05/29 00:33:40;;;;;;;15.38;9.75;;;;;;;11.43;72.11;100833.13;128519;1095;22345;-74
2021/05/29 00:36:10;;;;;;;12.55;10.03;;;;;;;11.39;72.11;100825.66;128481;1095;22369;-74
2021/05/29 00:38:40;;;;;;;10.85;9.65;;;;;;;11.33;72.16;100824.50;128539;1098;22348;-74
2021/05/29 00:41:10;;;;;;;10.50;9.40;;;;;;;11.28;72.13;100824.97;128565;1098;22337;-74
2021/05/29 00:43:39;;;;;;;12.18;9.50;;;;;;;11.24;72.04;100820.99;128532;1098;22333;-74
2021/05/29 00:46:09;;;;;;;11.73;9.60;;;;;;;11.20;72.11;100822.31;128543;1095;24154;-73
2021/05/29 00:48:40;;;;;;;15.60;9.93;;;;;;;11.18;72.26;100820.80;128578;1098;22454;-73
2021/05/29 00:51:11;;;;;;;10.57;9.37;;;;;;;11.13;72.36;100823.94;128528;1098;22953;-73
2021/05/29 00:53:41;;;;;;;13.70;9.83;;;;;;;11.10;72.38;100823.44;128554;1095;25186;-74
2021/05/29 00:56:11;;;;;;;13.23;9.28;;;;;;;11.10;72.65;100826.91;128557;1098;22333;-75
2021/05/29 00:58:42;;;;;;;10.53;9.48;;;;;;;11.10;72.19;100824.26;128500;1098;22347;-74
2021/05/29 01:01:12;;;;;;;11.20;9.20;;;;;;;11.08;72.41;100821.76;128592;1094;22328;-74
2021/05/29 01:03:42;;;;;;;10.95;9.18;;;;;;;11.09;72.59;100822.58;128565;1098;22339;-74
2021/05/29 01:06:12;;;;;;;12.75;9.93;;;;;;;11.05;72.39;100824.72;128517;1098;22333;-74
2021/05/29 01:08:43;;;;;;;10.50;8.83;;;;;;;11.03;72.47;100829.36;128537;1098;22360;-74
2021/05/29 01:11:13;;;;;;;10.67;8.87;;;;;;;10.99;72.24;100824.52;128593;1098;22348;-74
2021/05/29 01:13:43;;;;;;;13.23;10.13;;;;;;;10.97;72.54;100822.05;128546;1095;22348;-74
2021/05/29 01:16:41;;;;;;;10.85;9.58;;;;;;;10.95;72.38;100820.55;128496;1095;22324;-74
2021/05/29 01:19:12;;;;;;;11.28;9.08;;;;;;;10.92;72.54;100821.69;128565;1098;22352;-73
2021/05/29 01:21:42;;;;;;;10.95;9.45;;;;;;;10.88;72.22;100815.06;128515;1094;22330;-73
2021/05/29 01:24:12;;;;;;;10.25;8.58;;;;;;;10.84;72.22;100819.84;128531;1095;24249;-74
2021/05/29 01:26:42;;;;;;;10.23;9.23;;;;;;;10.80;72.10;100820.33;128554;1095;22345;-74
2021/05/29 01:29:13;;;;;;;11.90;9.10;;;;;;;10.77;72.18;100813.53;128552;1098;22417;-74
2021/05/29 01:31:48;;;;;;;10.73;8.98;;;;;;;10.73;72.03;100811.34;128577;1098;23364;-74
2021/05/29 01:34:22;;;;;;;10.28;9.03;;;;;;;10.68;72.11;100811.00;128564;1095;24976;-74
2021/05/29 01:36:51;;;;;;;11.53;9.53;;;;;;;10.63;72.05;100815.92;128591;1098;23076;-74
2021/05/29 01:39:22;;;;;;;10.30;9.15;;;;;;;10.57;72.09;100809.47;128560;1094;24258;-74
2021/05/29 01:41:52;;;;;;;9.40;8.40;;;;;;;10.54;72.20;100813.24;128552;1095;22427;-74
2021/05/29 01:44:23;;;;;;;10.75;9.70;;;;;;;10.49;71.96;100817.33;128584;1094;22784;-75
2021/05/29 01:46:53;;;;;;;12.75;9.30;;;;;;;10.43;71.93;100815.30;128573;1095;25061;-73
2021/05/29 01:49:23;;;;;;;10.73;9.28;;;;;;;10.39;72.05;100821.89;128534;1095;22344;-73
2021/05/29 01:51:53;;;;;;;14.25;11.38;;;;;;;10.36;71.97;100815.09;128511;1098;22345;-73
2021/05/29 01:54:23;;;;;;;12.70;11.48;;;;;;;10.32;71.88;100811.11;128544;1098;22501;-73
2021/05/29 01:56:54;;;;;;;13.28;11.23;;;;;;;10.29;71.91;100819.34;128256;1095;24214;-73
2021/05/29 01:59:27;;;;;;;11.10;9.85;;;;;;;10.26;71.86;100822.29;128306;1098;22354;-74
2021/05/29 02:01:57;;;;;;;11.38;10.25;;;;;;;10.22;71.82;100823.55;128573;1094;24284;-73
2021/05/29 02:04:27;;;;;;;13.30;11.15;;;;;;;10.18;71.79;100822.20;128231;1098;22682;-73
2021/05/29 02:06:57;;;;;;;11.83;9.65;;;;;;;10.15;71.73;100825.98;128182;1098;22336;-74
2021/05/29 02:09:26;;;;;;;10.53;9.10;;;;;;;10.12;71.70;100823.64;128606;1098;22330;-73
2021/05/29 02:11:56;;;;;;;11.15;10.03;;;;;;;10.07;71.61;100820.65;128516;1095;22326;-75
2021/05/29 02:14:26;;;;;;;11.10;9.43;;;;;;;10.03;71.49;100827.19;128584;1098;22342;-73
2021/05/29 02:16:55;;;;;;;12.85;9.45;;;;;;;9.98;71.45;100814.46;128582;1098;22357;-73
2021/05/29 02:19:25;;;;;;;10.78;9.63;;;;;;;9.95;71.55;100822.69;128519;1094;24164;-73
2021/05/29 02:21:55;;;;;;;10.70;9.58;;;;;;;9.94;71.65;100825.48;128511;1095;23281;-73
2021/05/29 02:24:25;;;;;;;11.35;10.10;;;;;;;9.90;71.50;100824.97;128550;1098;22435;-73
2021/05/29 02:26:54;;;;;;;11.33;9.57;;;;;;;9.87;71.52;100825.27;128544;1095;24147;-73
2021/05/29 02:29:24;;;;;;;10.38;9.33;;;;;;;9.86;71.84;100829.72;128552;1098;22351;-74
2021/05/29 02:31:54;;;;;;;11.38;8.73;;;;;;;9.86;71.70;100828.86;128166;1097;22459;-74
2021/05/29 02:34:24;;;;;;;9.35;8.45;;;;;;;9.86;71.51;100836.78;127923;1099;22817;-74
2021/05/29 02:36:53;;;;;;;12.53;9.15;;;;;;;9.84;71.77;100831.66;127933;1101;22390;-74
2021/05/29 02:39:23;;;;;;;10.53;8.28;;;;;;;9.83;71.69;100830.02;128139;1101;22937;-75
2021/05/29 02:41:53;;;;;;;10.78;8.68;;;;;;;9.82;71.67;100832.79;127947;1101;24483;-73
2021/05/29 02:44:24;;;;;;;11.08;9.45;;;;;;;9.81;71.50;100837.24;128130;1101;24351;-74
2021/05/29 02:46:54;;;;;;;10.38;9.28;;;;;;;9.79;71.49;100839.19;128220;1100;24244;-74
2021/05/29 02:49:24;;;;;;;11.30;9.68;;;;;;;9.81;71.64;100839.05;128140;1100;22373;-74
2021/05/29 02:51:54;;;;;;;12.23;9.53;;;;;;;9.80;71.59;100838.23;128513;1096;25056;-74
2021/05/29 02:54:25;;;;;;;10.10;8.55;;;;;;;9.79;71.59;100846.28;128564;1095;24554;-73
2021/05/29 02:56:54;;;;;;;11.73;8.33;;;;;;;9.78;71.66;100848.09;128642;1095;25376;-73
2021/05/29 02:59:24;;;;;;;9.50;8.50;;;;;;;9.78;71.44;100847.27;128529;1098;22348;-74
2021/05/29 03:01:54;;;;;;;11.13;8.85;;;;;;;9.78;71.51;100852.55;128561;1094;24300;-73
2021/05/29 03:04:24;;;;;;;12.98;9.45;;;;;;;9.78;71.66;100848.09;128553;1098;22440;-74
2021/05/29 03:06:54;;;;;;;9.35;8.15;;;;;;;9.79;71.59;100852.38;128585;1095;24231;-75
2021/05/29 03:09:25;;;;;;;10.15;8.58;;;;;;;9.82;71.66;100844.17;128536;1098;23121;-74
2021/05/29 03:11:57;;;;;;;9.53;7.98;;;;;;;9.85;71.73;100849.14;128556;1098;22329;-73
2021/05/29 03:14:27;;;;;;;9.55;8.65;;;;;;;9.87;71.75;100847.20;128559;1095;24440;-72
2021/05/29 03:16:57;;;;;;;9.75;8.40;;;;;;;9.90;71.59;100846.08;128569;1098;22327;-74
2021/05/29 03:19:27;;;;;;;11.57;8.83;;;;;;;9.93;71.45;100851.05;128530;1098;22308;-74
2021/05/29 03:21:57;;;;;;;9.00;7.50;;;;;;;9.96;71.63;100852.53;128535;1098;22331;-74
2021/05/29 03:24:27;;;;;;;9.85;8.30;;;;;;;9.99;71.64;100849.59;128518;1095;22460;-74
2021/05/29 03:26:57;;;;;;;8.90;7.53;;;;;;;10.03;71.49;100850.95;128595;1098;23811;-74
2021/05/29 03:29:26;;;;;;;11.73;7.00;;;;;;;10.06;71.54;100850.64;128609;1095;24762;-74
2021/05/29 03:31:56;;;;;;;9.40;8.30;;;;;;;10.11;71.82;100853.67;128540;1095;22411;-74
2021/05/29 03:34:26;;;;;;;9.80;7.73;;;;;;;10.14;71.44;100851.55;128551;1098;22433;-74
2021/05/29 03:36:55;;;;;;;8.65;7.58;;;;;;;10.19;71.27;100844.98;128529;1095;22359;-74
2021/05/29 03:39:25;;;;;;;12.00;8.40;;;;;;;10.24;71.29;100848.00;128586;1094;24443;-74
2021/05/29 03:41:55;;;;;;;11.28;8.18;;;;;;;10.28;71.22;100852.84;128578;1098;23371;-74
2021/05/29 03:44:25;;;;;;;9.45;8.35;;;;;;;10.32;71.20;100856.00;128564;1094;24167;-73
2021/05/29 03:46:54;;;;;;;12.33;8.18;;;;;;;10.33;70.51;100853.23;128544;1098;22327;-73
2021/05/29 03:49:27;;;;;;;8.45;7.43;;;;;;;10.35;70.61;100856.52;128536;1095;24460;-73
2021/05/29 03:51:57;;;;;;;9.18;7.45;;;;;;;10.39;70.57;100861.50;128558;1095;25037;-73
2021/05/29 03:54:27;;;;;;;12.33;7.45;;;;;;;10.40;70.47;100861.37;128493;1098;22361;-73
2021/05/29 03:56:56;;;;;;;8.28;7.25;;;;;;;10.43;70.56;100860.20;128576;1098;22351;-74
2021/05/29 03:59:26;;;;;;;9.45;6.88;;;;;;;10.46;70.31;100867.82;128574;1098;22348;-74
2021/05/29 04:01:56;;;;;;;8.23;6.63;;;;;;;10.49;70.22;100864.88;128534;1098;22351;-75
2021/05/29 04:04:26;;;;;;;6.50;5.90;;;;;;;10.52;70.09;100864.56;128502;1098;22346;-78
2021/05/29 04:06:58;;;;;;;9.85;6.95;;;;;;;10.54;69.83;100867.89;128286;1095;22351;-78
2021/05/29 04:09:28;;;;;;;;;;;;;;;10.51;69.73;100869.03;128560;1098;22411;-73
2021/05/29 04:11:58;;;;;;;7.30;6.60;;;;;;;10.49;70.03;100868.34;128579;1098;21278;-73
2021/05/29 04:14:28;;;;;;;8.87;6.93;;;;;;;10.55;69.85;100870.37;128194;1098;22436;-74
2021/05/29 04:16:57;;;;;;;10.43;7.43;;;;;;;10.60;69.75;100876.03;128590;1095;22326;-74
2021/05/29 04:19:27;;;;;;;8.03;7.23;;;;;;;10.66;69.81;100874.56;128593;1094;24304;-73
2021/05/29 04:21:58;;;;;;;7.98;6.90;;;;;;;10.75;69.75;100878.92;128540;1097;22333;-74
2021/05/29 04:24:27;;;;;;;7.98;7.18;;;;;;;10.82;69.22;100873.84;128559;1098;22333;-74
2021/05/29 04:26:57;;;;;;;7.28;6.58;;;;;;;10.89;69.28;100876.68;128554;1095;24557;-74
2021/05/29 04:29:27;;;;;;;8.08;6.83;;;;;;;10.98;69.28;100873.11;128551;1098;22333;-74
2021/05/29 04:31:56;;;;;;;7.58;6.43;;;;;;;11.08;69.06;100873.81;128545;1095;22419;-74
2021/05/29 04:34:26;;;;;;;7.40;6.38;;;;;;;11.17;68.84;100874.69;128567;1094;24241;-75
2021/05/29 04:36:56;;;;;;;7.63;5.85;;;;;;;11.22;68.40;100870.56;128583;1094;24466;-74
2021/05/29 04:39:26;;;;;;;7.30;6.60;;;;;;;11.22;67.78;100875.85;128546;1098;22395;-74
2021/05/29 04:41:56;;;;;;;7.60;6.70;;;;;;;11.22;67.74;100865.27;128535;1095;23100;-74
2021/05/29 04:44:26;;;;;;;8.23;6.73;;;;;;;11.24;67.60;100868.59;128553;1095;22406;-75
2021/05/29 04:47:00;;;;;;;7.63;6.88;;;;;;;11.34;67.88;100867.65;128512;1098;22396;-73
2021/05/29 04:49:31;;;;;;;8.17;6.57;;;;;;;11.47;67.77;100874.14;128566;1096;24813;-74
2021/05/29 04:52:01;;;;;;;8.73;6.15;;;;;;;11.60;67.36;100870.21;128211;1098;23434;-74
2021/05/29 04:54:32;;;;;;;8.33;6.23;;;;;;;11.75;67.44;100876.52;128348;1096;22347;-74
2021/05/29 04:57:03;;;;;;;7.70;5.50;;;;;;;11.85;66.89;100879.87;128610;1096;22414;-74
2021/05/29 04:59:33;;;;;;;8.97;5.30;;;;;;;12.00;66.50;100872.95;128230;1097;24463;-74
2021/05/29 05:02:04;;;;;;;5.88;5.25;;;;;;;12.14;66.03;100879.41;128539;1096;24447;-74
2021/05/29 05:04:33;;;;;;;5.95;5.35;;;;;;;12.25;65.52;100883.55;128189;1095;22344;-74
2021/05/29 05:07:04;;;;;;;5.68;5.05;;;;;;;12.36;64.96;100879.73;128591;1095;22364;-75
2021/05/29 05:09:33;;;;;;;6.95;5.10;;;;;;;12.46;64.88;100875.08;128566;1098;22335;-73
2021/05/29 05:12:04;;;;;;;5.75;5.15;;;;;;;12.65;64.76;100874.73;128584;1098;22422;-73
2021/05/29 05:14:34;;;;;;;6.25;5.05;;;;;;;12.82;63.86;100870.22;128607;1095;22343;-74
2021/05/29 05:17:04;;;;;;;5.33;4.83;;;;;;;12.97;63.68;100878.31;128577;1098;22670;-73
2021/05/29 05:19:34;;;;;;;5.98;4.83;;;;;;;13.16;63.03;100871.77;128543;1095;22345;-73
2021/05/29 05:22:04;;;;;;;4.60;4.18;;;;;;;13.34;62.54;100867.09;128583;1098;22343;-73
2021/05/29 05:24:34;;;;;;;7.80;4.85;;;;;;;13.51;61.69;100869.66;128546;1095;22330;-73
2021/05/29 05:27:04;;;;;;;6.78;6.10;;;;;;;13.66;61.14;100875.86;128573;1093;24228;-72
2021/05/29 05:29:34;;;;;;;8.73;7.65;;;;;;;13.83;60.61;100887.23;128551;1098;22436;-73
2021/05/29 05:32:04;;;;;;;7.35;4.88;;;;;;;13.99;60.15;100886.28;128582;1094;22327;-73
2021/05/29 05:34:34;;;;;;;4.60;4.17;;;;;;;14.13;59.45;100888.19;128566;1098;22347;-72
2021/05/29 05:37:06;;;;;;;4.95;4.30;;;;;;;14.16;58.42;100885.18;128570;1095;23287;-72
2021/05/29 05:39:36;;;;;;;4.43;4.10;;;;;;;14.13;58.01;100889.02;128591;1095;22346;-72
2021/05/29 05:42:08;;;;;;;5.78;5.20;;;;;;;14.10;57.89;100894.67;128577;1098;22342;-72
2021/05/29 05:44:38;;;;;;;6.43;4.43;;;;;;;14.08;57.70;100880.73;128558;1095;25019;-72
2021/05/29 05:47:08;;;;;;;4.43;3.73;;;;;;;14.07;57.44;100881.75;128527;1095;24462;-72
2021/05/29 05:49:39;;;;;;;8.40;7.70;;;;;;;14.02;57.39;100891.23;128746;1098;22329;-73
2021/05/29 05:52:09;;;;;;;4.73;4.00;;;;;;;13.99;57.34;100883.63;128581;1098;22352;-72
2021/05/29 05:54:38;;;;;;;3.88;2.83;;;;;;;13.96;57.09;100884.83;128582;1097;22332;-72
2021/05/29 05:57:08;;;;;;;5.03;3.50;;;;;;;13.89;56.86;100887.36;128535;1098;22408;-73
2021/05/29 05:59:38;;;;;;;6.55;3.38;;;;;;;13.84;57.09;100891.54;128546;1096;22323;-74
2021/05/29 06:02:08;;;;;;;5.83;3.00;;;;;;;13.83;57.10;100887.23;128584;1098;22395;-74
2021/05/29 06:04:39;;;;;;;2.58;2.38;;;;;;;13.87;57.50;100883.22;128731;1098;22345;-75
2021/05/29 06:07:08;;;;;;;3.70;2.28;;;;;;;13.98;57.37;100887.30;128606;1098;22330;-72
2021/05/29 06:09:38;;;;;;;4.00;2.10;;;;;;;14.22;57.79;100879.13;128587;1095;22363;-73
2021/05/29 06:12:08;;;;;;;3.35;2.85;;;;;;;14.57;57.54;100885.67;128254;1100;22436;-73
2021/05/29 06:20:15;;;;;;;5.95;3.65;;;;;;;15.72;54.99;100881.67;128170;1100;22355;-73
2021/05/29 06:22:46;;;;;;;5.75;3.53;;;;;;;15.84;54.03;100890.00;128322;1098;23203;-77
2021/05/29 06:25:17;;;;;;;4.70;3.08;;;;;;;15.82;53.14;100890.18;128181;1101;23711;-77
2021/05/29 06:27:46;;;;;;;5.53;2.88;;;;;;;15.80;53.06;100884.23;128341;1098;22368;-78
2021/05/29 06:30:17;;;;;;;3.85;3.13;;;;;;;15.81;52.94;100893.86;128248;1095;24239;-78
2021/05/29 06:32:47;;;;;;;3.40;3.10;;;;;;;15.78;52.81;100896.91;128573;1098;22324;-78
2021/05/29 06:35:17;;;;;;;4.60;3.10;;;;;;;15.78;52.81;100898.75;128587;1093;24576;-78
2021/05/29 06:37:47;;;;;;;3.53;2.90;;;;;;;15.75;53.04;100895.44;128583;1098;22341;-77
2021/05/29 06:40:18;;;;;;;4.88;3.18;;;;;;;15.74;52.76;100903.63;128542;1094;24300;-77
2021/05/29 06:42:48;;;;;;;5.73;3.20;;;;;;;15.73;53.03;100892.16;128638;1097;22342;-77
2021/05/29 06:45:18;;;;;;;6.25;3.40;;;;;;;15.79;52.91;100901.21;128562;1098;22338;-77
2021/05/29 06:47:48;;;;;;;6.63;3.63;;;;;;;15.80;52.58;100902.06;128601;1098;22430;-78
2021/05/29 06:50:18;;;;;;;5.23;3.30;;;;;;;15.80;52.62;100899.39;128629;1094;24288;-78
2021/05/29 06:52:51;;;;;;;4.28;3.40;;;;;;;15.74;52.20;100903.63;128845;1095;22387;-77
2021/05/29 07:00:58;;;;;;;5.18;3.83;;;;;;;15.86;53.34;100894.14;128407;1098;22328;-79
2021/05/29 07:03:29;;;;;;;4.63;4.15;;;;;;;15.96;52.86;100893.80;128374;1098;22345;-77
2021/05/29 07:06:00;;;;;;;4.90;4.13;;;;;;;15.96;52.63;100894.65;128552;1098;23099;-79
2021/05/29 07:08:33;;;;;;;5.90;4.68;;;;;;;16.03;53.08;100893.86;128268;1096;24659;-77
2021/05/29 07:11:05;;;;;;;4.68;4.28;;;;;;;16.18;52.79;100891.97;128101;1098;24256;-77
2021/05/29 07:13:35;;;;;;;6.33;4.50;;;;;;;16.37;52.45;100893.17;127958;1098;22441;-77
2021/05/29 07:16:06;;;;;;;6.43;5.83;;;;;;;16.61;52.34;100881.25;127988;1097;24231;-77
2021/05/29 07:18:45;;;;;;;6.18;3.90;;;;;;;16.87;51.85;100877.97;128237;1101;22337;-78
2021/05/29 07:21:18;;;;;;;6.88;3.53;;;;;;;17.28;51.47;100883.30;128245;1101;22341;-79
2021/05/29 07:23:48;;;;;;;4.63;3.75;;;;;;;17.66;50.55;100885.52;128235;1098;24313;-78
2021/05/29 07:26:18;;;;;;;7.43;3.68;;;;;;;17.87;49.36;100889.91;128454;1101;22367;-78
2021/05/29 07:28:48;;;;;;;5.75;3.90;;;;;;;17.84;48.45;100880.44;128419;1094;22326;-78
2021/05/29 07:31:19;;;;;;;6.10;5.50;;;;;;;17.86;48.87;100883.74;128784;1098;22440;-77
2021/05/29 07:33:51;;;;;;;4.35;3.73;;;;;;;17.90;48.46;100886.02;128591;1095;24469;-78
2021/05/29 07:36:22;;;;;;;4.30;3.63;;;;;;;17.79;47.92;100893.59;128578;1098;22330;-75
2021/05/29 07:38:55;;;;;;;8.23;4.58;;;;;;;17.63;48.12;100885.91;128640;1098;22345;-77
2021/05/29 07:41:26;;;;;;;9.08;4.15;;;;;;;17.57;48.37;100892.05;128592;1095;24469;-77
2021/05/29 07:43:57;;;;;;;3.90;3.48;;;;;;;17.43;48.22;100887.66;128591;1095;24443;-77
2021/05/29 07:46:27;;;;;;;4.18;3.65;;;;;;;17.33;48.63;100890.73;128565;1095;22452;-77
2021/05/29 07:48:57;;;;;;;3.68;3.25;;;;;;;17.20;48.16;100888.00;128558;1098;22429;-77
2021/05/29 07:51:28;;;;;;;4.55;4.15;;;;;;;17.15;48.36;100888.58;128569;1095;22427;-77
2021/05/29 07:53:58;;;;;;;4.25;3.78;;;;;;;17.32;48.89;100883.72;128616;1098;22903;-77
2021/05/29 07:56:29;;;;;;;4.00;3.60;;;;;;;17.55;48.65;100891.42;128583;1098;22334;-77
2021/05/29 07:59:06;;;;;;;5.95;3.75;;;;;;;17.67;47.87;100895.16;128272;1098;24243;-77
2021/05/29 08:01:38;;;;;;;4.33;3.70;;;;;;;17.81;47.68;100896.88;128265;1100;22357;-79
2021/05/29 08:04:08;;;;;;;4.43;4.03;;;;;;;17.84;46.54;100901.81;128370;1100;24015;-77
2021/05/29 08:06:39;;;;;;;4.50;3.85;;;;;;;17.81;46.87;100899.55;128256;1098;22404;-77
2021/05/29 08:09:09;;;;;;;5.93;4.40;;;;;;;17.63;46.65;100891.25;127943;1104;22392;-77
2021/05/29 08:11:41;;;;;;;4.43;3.70;;;;;;;17.45;46.82;100897.13;127385;1108;22423;-78
2021/05/29 08:14:12;;;;;;;6.85;4.13;;;;;;;17.27;46.82;100892.34;127469;1104;24522;-80
2021/05/29 08:16:45;;;;;;;4.53;3.85;;;;;;;17.10;46.97;100883.02;127039;1105;24511;-79
2021/05/29 08:19:16;;;;;;;5.95;3.90;;;;;;;16.97;47.04;100880.28;127452;1106;24530;-77
2021/05/29 08:21:49;;;;;;;7.75;5.10;;;;;;;16.81;47.38;100879.56;127062;1108;22412;-78
2021/05/29 08:24:20;;;;;;;5.75;4.35;;;;;;;16.74;48.08;100881.34;127030;1111;22791;-77
2021/05/29 08:26:52;;;;;;;4.53;4.05;;;;;;;16.69;48.44;100881.94;127012;1111;23173;-77
2021/05/29 08:29:21;;;;;;;5.45;4.53;;;;;;;16.64;48.49;100880.86;126727;1108;22829;-78
2021/05/29 08:31:54;;;;;;;5.45;3.63;;;;;;;16.62;48.34;100880.22;126837;1108;22422;-77
2021/05/29 08:34:24;;;;;;;7.03;4.60;;;;;;;16.63;48.91;100887.22;126997;1104;24278;-78
2021/05/29 08:36:54;;;;;;;5.08;3.83;;;;;;;16.51;48.88;100881.58;127550;1104;22353;-77
2021/05/29 08:39:24;;;;;;;6.40;4.28;;;;;;;16.44;49.42;100878.05;127905;1101;25132;-77
2021/05/29 08:42:05;;;;;;;5.55;4.23;;;;;;;16.46;49.58;100881.32;127966;1103;22369;-77
2021/05/29 08:44:35;;;;;;;4.60;4.20;;;;;;;16.47;49.24;100883.81;128009;1101;22656;-77
2021/05/29 08:47:05;;;;;;;8.43;4.30;;;;;;;16.39;49.31;100886.64;128267;1098;22327;-77
2021/05/29 08:49:35;;;;;;;4.73;3.75;;;;;;;16.43;49.70;100877.23;128608;1095;23113;-78
2021/05/29 08:52:09;;;;;;;4.38;3.50;;;;;;;16.58;49.70;100876.30;128546;1095;22345;-77
2021/05/29 08:54:42;;;;;;;4.68;3.35;;;;;;;16.74;49.41;100876.00;128163;1101;22334;-76
2021/05/29 08:57:17;;;;;;;4.58;4.00;;;;;;;17.14;50.10;100870.92;128503;1101;22551;-77
2021/05/29 08:59:47;;;;;;;5.85;3.88;;;;;;;17.77;49.21;100876.92;128536;1097;22358;-75
2021/05/29 09:02:17;;;;;;;5.45;3.55;;;;;;;18.03;47.65;100876.16;128260;1100;22352;-77
2021/05/29 09:05:09;;;;;;;3.58;3.05;;;;;;;18.16;46.72;100875.35;127949;1102;23309;-77
2021/05/29 09:07:39;;;;;;;5.05;3.03;;;;;;;18.11;46.68;100883.15;127994;1099;24502;-76
2021/05/29 09:10:19;;;;;;;6.10;3.38;;;;;;;18.00;46.00;100867.72;127974;1103;22350;-77
2021/05/29 09:13:08;;;;;;;4.20;3.40;;;;;;;17.88;46.22;100875.50;127923;1104;22361;-77
2021/05/29 09:16:03;;;;;;;12.28;4.38;;;;;;;17.67;46.61;100870.30;127903;1104;23272;-77
2021/05/29 09:18:49;;;;;;;3.63;2.75;;;;;;;17.61;46.86;100866.58;127469;1105;24531;-77
2021/05/29 09:21:34;;;;;;;4.05;2.60;;;;;;;17.55;46.51;100872.72;127950;1102;24517;-77
2021/05/29 09:24:18;;;;;;;3.85;3.18;;;;;;;17.43;46.63;100861.80;127504;1104;24501;-76
2021/05/29 09:26:51;;;;;;;6.83;3.25;;;;;;;17.33;46.81;100869.38;127643;1103;24192;-77
2021/05/29 09:29:30;;;;;;;4.33;3.93;;;;;;;17.60;47.71;100872.95;127603;1102;24507;-76
2021/05/29 09:32:04;;;;;;;4.50;4.10;;;;;;;18.03;47.45;100867.31;127858;1104;22377;-77
2021/05/29 09:34:49;;;;;;;5.03;4.25;;;;;;;18.17;46.12;100870.82;127955;1104;22350;-76
2021/05/29 09:37:29;;;;;;;4.45;3.85;;;;;;;18.30;46.25;100865.48;127558;1105;22941;-77
2021/05/29 09:40:04;;;;;;;5.20;3.40;;;;;;;18.39;45.61;100863.40;127528;1105;22415;-78
2021/05/29 09:42:39;;;;;;;11.70;3.93;;;;;;;18.33;44.97;100857.86;127734;1104;22380;-77
2021/05/29 09:45:42;;;;;;;3.93;3.18;;;;;;;18.13;45.06;100862.39;127934;1101;24588;-77
2021/05/29 09:48:21;;;;;;;3.63;3.00;;;;;;;17.84;44.48;100860.91;127491;1103;22400;-77
2021/05/29 09:50:58;;;;;;;6.93;3.53;;;;;;;17.65;45.58;100851.78;127470;1105;24349;-77
2021/05/29 09:53:30;;;;;;;3.40;2.70;;;;;;;17.47;45.70;100856.89;127402;1105;23469;-76
2021/05/29 09:56:00;;;;;;;7.83;4.43;;;;;;;17.36;46.19;100850.25;127454;1100;24335;-78
2021/05/29 09:59:24;;;;;;;6.03;3.43;;;;;;;17.38;46.29;100853.55;128049;1099;22517;-72
2021/05/29 10:01:57;;;;;;;3.23;2.80;;;;;;;17.42;46.90;100846.78;127920;1104;22440;-73
2021/05/29 10:04:42;;;;;;;3.55;3.25;;;;;;;17.56;46.43;100848.49;127926;1104;22385;-73
2021/05/29 10:07:13;;;;;;;3.98;3.28;;;;;;;17.59;46.01;100853.44;127896;1102;22387;-73
2021/05/29 10:09:44;;;;;;;6.60;3.80;;;;;;;17.63;46.10;100851.19;127810;1101;24964;-73
2021/05/29 10:12:14;;;;;;;4.35;3.85;;;;;;;17.58;45.86;100851.77;127958;1101;25319;-75
2021/05/29 10:14:45;;;;;;;6.73;3.93;;;;;;;17.53;46.13;100845.41;127912;1104;22461;-72
2021/05/29 10:17:15;;;;;;;5.48;4.03;;;;;;;17.57;46.44;100847.45;127899;1104;22350;-73
2021/05/29 10:19:47;;;;;;;4.60;3.55;;;;;;;17.67;46.44;100844.41;127931;1105;22732;-73
2021/05/29 10:22:19;;;;;;;4.18;3.78;;;;;;;17.64;45.67;100858.98;127510;1106;22386;-74
2021/05/29 10:24:49;;;;;;;5.08;4.58;;;;;;;17.47;45.57;100849.69;127936;1101;22396;-73
2021/05/29 10:27:26;;;;;;;6.00;4.83;;;;;;;17.34;46.03;100842.45;127938;1101;24402;-73
2021/05/29 10:29:59;;;;;;;5.10;3.75;;;;;;;17.27;46.43;100851.47;127961;1100;24559;-73
2021/05/29 10:32:29;;;;;;;4.35;3.20;;;;;;;17.16;46.20;100843.02;127584;1104;22381;-73
2021/05/29 10:35:09;;;;;;;5.95;3.00;;;;;;;17.12;46.42;100832.91;127890;1104;22266;-73
2021/05/29 10:37:43;;;;;;;4.63;2.58;;;;;;;17.11;46.25;100833.94;128171;1098;24249;-73
2021/05/29 10:40:20;;;;;;;3.50;2.85;;;;;;;17.06;46.46;100831.88;128236;1097;23073;-72
2021/05/29 10:43:10;;;;;;;4.25;2.40;;;;;;;17.02;46.50;100832.45;128294;1098;22349;-73
2021/05/29 10:46:07;;;;;;;4.95;3.13;;;;;;;17.00;46.14;100837.19;128647;1097;22358;-72
2021/05/29 10:48:49;;;;;;;8.78;2.83;;;;;;;16.92;45.90;100838.97;128576;1096;24489;-73
2021/05/29 10:51:19;;;;;;;3.65;2.45;;;;;;;16.88;46.09;100827.05;128512;1098;22330;-73
2021/05/29 10:53:55;;;;;;;3.65;2.20;;;;;;;16.85;45.95;100834.63;128589;1095;25051;-73
2021/05/29 10:56:27;;;;;;;6.20;2.10;;;;;;;16.79;45.84;100835.41;128663;1095;22340;-72
2021/05/29 10:59:05;;;;;;;18.68;16.85;;;;;;;16.81;46.15;100841.39;128683;1098;22431;-73
2021/05/29 11:01:36;;;;;;;4.08;3.10;;;;;;;16.74;45.94;100843.98;128561;1095;24464;-74
2021/05/29 11:04:16;;;;;;;4.00;2.85;;;;;;;16.73;45.99;100841.50;128657;1098;22346;-73
2021/05/29 11:06:49;;;;;;;5.65;2.55;;;;;;;16.68;46.53;100837.58;128578;1098;22341;-72
2021/05/29 11:09:32;;;;;;;3.55;2.80;;;;;;;16.74;46.43;100837.83;128570;1098;23110;-74
2021/05/29 11:12:04;;;;;;;4.35;3.25;;;;;;;16.76;46.95;100838.47;128567;1098;22324;-73
2021/05/29 11:14:56;;;;;;;5.63;2.90;;;;;;;16.88;47.27;100842.25;128558;1095;22342;-72
2021/05/29 11:17:28;;;;;;;4.05;3.30;;;;;;;16.99;47.14;100824.84;128667;1095;22347;-73
2021/05/29 11:20:09;;;;;;;3.13;2.83;;;;;;;17.06;47.04;100833.70;128642;1095;22528;-74
2021/05/29 11:22:47;;;;;;;4.65;2.33;;;;;;;17.15;46.80;100832.52;128554;1098;22330;-74
2021/05/29 11:25:23;;;;;;;3.93;2.60;;;;;;;17.16;46.62;100832.34;128610;1095;24469;-73
2021/05/29 11:27:54;;;;;;;3.78;2.40;;;;;;;17.11;45.89;100831.27;128586;1098;22621;-75
2021/05/29 11:30:26;;;;;;;2.55;1.98;;;;;;;17.05;46.18;100822.20;128601;1098;22341;-75
2021/05/29 11:35:47;;;;;;;3.83;2.68;;;;;;;17.08;46.52;100827.15;128447;1099;22774;-73
2021/05/29 11:38:32;;;;;;;4.05;2.95;;;;;;;17.20;46.20;100824.75;128285;1098;22917;-73
2021/05/29 11:41:13;;;;;;;3.00;2.53;;;;;;;17.29;46.38;100818.19;128250;1100;22321;-73
2021/05/29 11:43:54;;;;;;;4.10;2.75;;;;;;;17.31;45.98;100812.66;128353;1097;24938;-73
2021/05/29 11:46:27;;;;;;;4.70;2.25;;;;;;;17.32;45.44;100809.77;128432;1100;22324;-72
2021/05/29 11:49:07;;;;;;;3.60;2.88;;;;;;;17.29;45.58;100807.50;128369;1098;22303;-73
2021/05/29 11:51:46;;;;;;;3.05;2.20;;;;;;;17.22;45.59;100808.52;128516;1098;22323;-74